Time;durP1;ratioP1;P1;durP2;ratioP2;P2;SDS_P1;SDS_P2;PMS_P1;PMS_P2;Temp;Humidity;BMP_temperature;BMP_pressure;BME280_temperature;BME280_humidity;BME280_pressure;Samples;Min_cycle;Max_cycle;Signal;HPM_P1;HPM_P2
2022/04/03 00:00:22;;;;;;;0.70;0.70;;;3.00;75.40;;;1.84;63.01;94359.09;5038337;28;20295;-83
2022/04/03 00:02:50;;;;;;;0.70;0.70;;;2.90;75.40;;;1.84;62.90;94358.31;5055068;28;20286;-84
2022/04/03 00:05:19;;;;;;;0.70;0.70;;;2.90;75.50;;;1.84;63.24;94356.50;5047138;28;20220;-84
2022/04/03 00:07:47;;;;;;;0.80;0.80;;;2.90;75.40;;;1.88;62.87;94357.03;5035533;28;20258;-84
2022/04/03 00:10:17;;;;;;;0.70;0.70;;;2.90;75.40;;;1.90;62.96;94368.03;5050738;28;20225;-84
2022/04/03 00:12:46;;;;;;;0.70;0.70;;;2.90;75.40;;;1.75;62.92;94341.94;5050745;28;20291;-85
2022/04/03 00:15:14;;;;;;;0.70;0.70;;;3.00;75.50;;;1.85;62.98;94365.91;5038321;28;20239;-84
2022/04/03 00:17:43;;;;;;;0.68;0.68;;;2.90;75.40;;;1.87;62.65;94378.69;5049661;28;20247;-84
2022/04/03 00:20:12;;;;;;;0.70;0.70;;;3.00;75.40;;;1.89;63.10;94371.59;5066596;28;20224;-84
2022/04/03 00:22:40;;;;;;;0.63;0.63;;;3.00;75.40;;;1.88;63.18;94375.13;5034419;28;20635;-85
2022/04/03 00:25:08;;;;;;;0.70;0.70;;;3.00;75.40;;;1.88;62.78;94380.28;5046735;28;20780;-84
2022/04/03 00:27:34;;;;;;;0.63;0.63;;;3.00;75.40;;;1.87;62.49;94378.69;5017517;28;20199;-81
2022/04/03 00:30:02;;;;;;;0.70;0.70;;;3.00;75.40;;;1.84;62.74;94377.19;5044676;28;20224;-85
2022/04/03 00:32:29;;;;;;;0.90;0.90;;;2.90;75.40;;;1.70;62.83;94363.06;5056223;28;20253;-84
2022/04/03 00:34:57;;;;;;;0.80;0.80;;;3.00;75.40;;;1.87;62.78;94382.09;5057418;28;20215;-84
2022/04/03 00:37:24;;;;;;;0.70;0.70;;;2.90;75.30;;;1.85;62.69;94386.59;5034198;28;20192;-85
2022/04/03 00:39:51;;;;;;;0.70;0.70;;;3.00;75.40;;;1.88;62.83;94383.72;5026012;28;20221;-84
2022/04/03 00:42:19;;;;;;;0.70;0.70;;;2.90;75.40;;;1.87;62.71;94382.09;5034017;28;20196;-84
2022/04/03 00:44:46;;;;;;;0.70;0.70;;;3.00;75.40;;;1.87;62.82;94384.66;5063863;28;20244;-85
2022/04/03 00:47:16;;;;;;;0.80;0.80;;;3.00;75.30;;;1.86;62.66;94379.66;5033745;28;20197;-84
2022/04/03 00:49:45;;;;;;;0.70;0.70;;;3.00;75.30;;;1.84;62.79;94384.97;5069724;28;20220;-84
2022/04/03 00:52:12;;;;;;;0.70;0.70;;;3.00;75.30;;;1.70;62.80;94365.66;5053589;28;20196;-85
2022/04/03 00:54:40;;;;;;;0.60;0.60;;;3.00;75.30;;;1.80;62.67;94393.19;5054043;28;20585;-84
2022/04/03 00:57:08;;;;;;;0.70;0.70;;;3.00;75.30;;;1.66;62.97;94366.09;5071323;28;20202;-84
2022/04/03 00:59:36;;;;;;;0.70;0.70;;;2.90;75.20;;;1.77;62.64;94386.56;5017469;28;20328;-84
2022/04/03 01:02:04;;;;;;;0.70;0.70;;;2.90;75.30;;;1.76;62.84;94385.72;5047831;28;20204;-84
2022/04/03 01:04:32;;;;;;;0.70;0.70;;;2.90;75.30;;;1.76;62.74;94390.91;5063417;28;20219;-84
2022/04/03 01:06:59;;;;;;;0.80;0.80;;;2.90;75.30;;;1.66;62.50;94373.84;5045102;28;20300;-83
2022/04/03 01:09:27;;;;;;;0.80;0.80;;;2.90;75.30;;;1.79;62.57;94394.16;5053118;28;20220;-84
2022/04/03 01:11:54;;;;;;;0.80;0.80;;;2.90;75.30;;;1.78;62.80;94397.69;5036976;28;20204;-85
2022/04/03 01:14:31;;;;;;;0.80;0.80;;;2.90;75.30;;;1.75;62.83;94389.25;5059855;28;20341;-85
2022/04/03 01:16:58;;;;;;;0.70;0.70;;;2.90;75.50;;;1.70;62.98;94385.53;5069629;28;20234;-85
2022/04/03 01:19:26;;;;;;;0.80;0.80;;;2.90;75.40;;;1.72;62.86;94386.16;5042258;28;20224;-84
2022/04/03 01:21:53;;;;;;;0.70;0.70;;;2.90;75.40;;;1.76;62.75;94388.31;5060421;28;20254;-85
2022/04/03 01:24:23;;;;;;;0.70;0.70;;;2.80;75.40;;;1.75;62.69;94393.63;5053216;28;20222;-84
2022/04/03 01:26:50;;;;;;;0.70;0.70;;;2.90;75.40;;;1.75;63.14;94396.22;5048671;28;20779;-84
2022/04/03 01:29:18;;;;;;;0.60;0.60;;;2.90;75.40;;;1.76;62.81;94398.66;5036844;28;20258;-85
2022/04/03 01:31:47;;;;;;;0.70;0.70;;;2.90;75.40;;;1.79;62.99;94399.31;5052591;28;20203;-85
2022/04/03 01:34:15;;;;;;;0.80;0.80;;;2.90;75.40;;;1.77;62.75;94394.31;5055295;28;20226;-84
2022/04/03 01:36:43;;;;;;;0.63;0.63;;;2.90;75.40;;;1.78;62.18;94393.31;5071966;28;20209;-85
2022/04/03 01:39:11;;;;;;;0.70;0.70;;;2.90;75.40;;;1.76;62.69;94403.81;5067300;28;20215;-85
2022/04/03 01:41:40;;;;;;;0.60;0.60;;;2.90;75.30;;;1.75;62.86;94403.97;5049906;28;20219;-83
2022/04/03 01:44:12;;;;;;;0.70;0.70;;;2.90;75.20;;;1.70;62.34;94406.22;5040287;28;20632;-84
2022/04/03 01:46:40;;;;;;;0.70;0.70;;;2.80;75.10;;;1.59;62.77;94389.97;5036094;28;20446;-84
2022/04/03 01:49:09;;;;;;;0.80;0.80;;;2.80;75.00;;;1.64;62.61;94409.41;5035792;28;20257;-84
2022/04/03 01:51:36;;;;;;;0.70;0.70;;;2.80;75.10;;;1.61;62.47;94413.06;5035737;28;20234;-85
2022/04/03 01:54:04;;;;;;;0.60;0.60;;;2.80;75.00;;;1.58;62.28;94415.97;5019643;28;20216;-84
2022/04/03 01:56:34;;;;;;;0.75;0.75;;;2.80;75.10;;;1.54;62.55;94412.84;5037299;28;20658;-83
2022/04/03 01:59:03;;;;;;;0.70;0.70;;;2.70;75.00;;;1.51;62.67;94400.22;5055685;28;20565;-85
2022/04/03 02:01:32;;;;;;;0.70;0.70;;;2.70;75.00;;;1.48;62.69;94404.88;5060753;28;20207;-84
2022/04/03 02:04:02;;;;;;;0.70;0.70;;;2.70;75.00;;;1.46;62.82;94411.97;5049122;28;20275;-84
2022/04/03 02:06:31;;;;;;;0.65;0.65;;;2.70;75.00;;;1.43;62.61;94416.47;5051889;28;20586;-84
2022/04/03 02:09:01;;;;;;;0.70;0.70;;;2.70;75.00;;;1.42;62.74;94409.69;5039248;28;20262;-85
2022/04/03 02:11:29;;;;;;;0.70;0.70;;;2.60;75.00;;;1.40;62.66;94409.03;5049807;28;20192;-84
2022/04/03 02:13:57;;;;;;;0.80;0.80;;;2.60;75.00;;;1.39;62.74;94407.41;5065187;28;20275;-84
2022/04/03 02:16:24;;;;;;;0.70;0.70;;;2.60;75.00;;;1.40;62.62;94414.19;5030382;28;20204;-84
2022/04/03 02:18:52;;;;;;;0.60;0.60;;;2.60;75.10;;;1.31;62.77;94396.16;5036393;28;20220;-84
2022/04/03 02:21:19;;;;;;;0.70;0.70;;;2.60;75.10;;;1.39;62.62;94411.75;5051755;28;20281;-84
2022/04/03 02:23:46;;;;;;;0.80;0.80;;;2.60;75.00;;;1.39;62.57;94414.31;5037083;28;20208;-85
2022/04/03 02:26:13;;;;;;;0.70;0.70;;;2.60;75.00;;;1.38;62.56;94417.88;5018822;28;20257;-84
2022/04/03 02:28:40;;;;;;;0.80;0.80;;;2.50;75.00;;;1.35;62.96;94418.19;5051634;28;20301;-84
2022/04/03 02:31:07;;;;;;;0.80;0.80;;;2.60;75.00;;;1.28;62.59;94405.03;5065556;28;20198;-85
2022/04/03 02:33:35;;;;;;;0.70;0.70;;;2.50;75.00;;;1.26;62.75;94414.72;5068642;28;20532;-84
2022/04/03 02:36:02;;;;;;;0.80;0.80;;;2.50;74.90;;;1.26;62.79;94420.69;5068269;28;20195;-84
2022/04/03 02:38:29;;;;;;;0.77;0.77;;;2.50;74.80;;;1.20;62.71;94415.31;5055333;28;20195;-84
2022/04/03 02:40:57;;;;;;;0.80;0.80;;;2.50;74.80;;;1.18;62.46;94417.22;5037153;28;20232;-84
2022/04/03 02:43:24;;;;;;;0.70;0.70;;;2.50;74.80;;;1.13;62.78;94419.44;5059225;28;20238;-84
2022/04/03 02:45:51;;;;;;;0.70;0.70;;;2.40;74.70;;;0.91;62.71;94400.78;5053510;28;20202;-84
2022/04/03 02:48:19;;;;;;;0.70;0.70;;;2.40;74.70;;;1.03;62.63;94424.66;5055172;28;20283;-83
2022/04/03 02:50:46;;;;;;;0.70;0.70;;;2.40;74.70;;;0.96;62.47;94434.72;5034839;28;20204;-83
2022/04/03 02:53:14;;;;;;;0.70;0.70;;;2.40;74.70;;;0.93;62.49;94435.03;5055091;28;20660;-84
2022/04/03 02:55:41;;;;;;;0.70;0.70;;;2.30;74.50;;;0.89;62.68;94434.50;5056352;28;20217;-83
2022/04/03 02:58:08;;;;;;;0.70;0.70;;;2.20;74.40;;;0.81;62.41;94431.81;5031381;28;20238;-83
2022/04/03 03:00:35;;;;;;;0.70;0.70;;;2.20;74.50;;;0.60;62.73;94406.25;5064251;28;20224;-83
2022/04/03 03:03:06;;;;;;;0.70;0.70;;;2.20;74.40;;;0.71;62.21;94438.78;5031215;28;20242;-84
2022/04/03 03:05:34;;;;;;;0.80;0.80;;;2.10;74.30;;;0.65;62.64;94447.94;5068595;28;20223;-84
2022/04/03 03:08:01;;;;;;;0.70;0.70;;;2.10;74.30;;;0.57;62.73;94443.47;5037836;28;20286;-83
2022/04/03 03:10:28;;;;;;;0.70;0.70;;;2.00;74.30;;;0.42;62.44;94427.63;5037259;28;20270;-84
2022/04/03 03:12:55;;;;;;;0.70;0.70;;;2.00;74.30;;;0.50;62.16;94459.66;5031143;28;20692;-84
2022/04/03 03:15:23;;;;;;;0.70;0.70;;;1.90;74.30;;;0.41;62.75;94440.69;5048784;28;20220;-84
2022/04/03 03:17:50;;;;;;;0.70;0.70;;;1.90;74.20;;;0.37;62.44;94447.09;5048357;28;20193;-84
2022/04/03 03:20:21;;;;;;;0.80;0.80;;;1.80;74.30;;;0.35;62.60;94451.56;5060380;28;20217;-84
2022/04/03 03:22:49;;;;;;;0.70;0.70;;;1.80;74.30;;;0.22;62.65;94442.38;5039830;28;20191;-84
2022/04/03 03:25:16;;;;;;;0.70;0.70;;;1.70;74.30;;;0.26;62.60;94454.03;5071190;28;20219;-84
2022/04/03 03:27:43;;;;;;;0.73;0.73;;;1.70;74.30;;;0.24;62.75;94461.09;5035567;28;20211;-84
2022/04/03 03:30:11;;;;;;;0.80;0.80;;;1.70;74.30;;;0.21;62.77;94455.38;5067959;28;20219;-84
2022/04/03 03:32:39;;;;;;;0.80;0.80;;;1.70;74.40;;;0.20;62.35;94464.09;5054749;28;20207;-85
2022/04/03 03:35:07;;;;;;;0.90;0.90;;;1.60;74.40;;;0.16;62.59;94466.16;5030678;28;20224;-84
2022/04/03 03:37:35;;;;;;;0.80;0.80;;;1.60;74.40;;;0.13;62.70;94463.84;5034946;28;20411;-84
2022/04/03 03:40:03;;;;;;;0.80;0.80;;;1.50;74.40;;;0.08;62.82;94463.44;5047839;28;20227;-83
2022/04/03 03:42:31;;;;;;;0.80;0.80;;;1.50;74.40;;;0.07;62.78;94472.91;5048132;28;20443;-84
2022/04/03 03:44:58;;;;;;;0.70;0.70;;;1.50;74.50;;;-0.01;63.21;94465.88;5049773;28;20215;-84
2022/04/03 03:47:27;;;;;;;0.80;0.80;;;1.40;74.50;;;0.07;62.81;94477.28;5066953;28;20661;-84
2022/04/03 03:49:54;;;;;;;0.70;0.70;;;1.40;74.40;;;0.01;62.58;94478.63;5066698;28;20227;-85
2022/04/03 03:52:21;;;;;;;0.70;0.70;;;1.40;74.40;;;-0.01;62.61;94481.34;5051501;28;20192;-84
2022/04/03 03:54:48;;;;;;;0.80;0.80;;;1.40;74.40;;;-0.11;62.75;94472.84;5053538;28;20216;-85
2022/04/03 03:57:17;;;;;;;0.80;0.80;;;1.40;74.40;;;-0.09;62.63;94483.81;5034898;28;20562;-83
2022/04/03 03:59:45;;;;;;;0.80;0.80;;;1.40;74.40;;;-0.09;62.87;94491.53;5034609;28;20227;-84
2022/04/03 04:02:13;;;;;;;0.80;0.80;;;1.40;74.30;;;-0.15;62.52;94492.09;5049909;28;20281;-84
2022/04/03 04:04:40;;;;;;;0.70;0.70;;;1.30;74.30;;;-0.15;62.63;94511.91;5056409;28;20224;-85
2022/04/03 04:07:08;;;;;;;0.70;0.70;;;1.30;74.30;;;-0.18;62.59;94502.69;5062616;28;20200;-85
2022/04/03 04:09:36;;;;;;;0.70;0.70;;;1.30;74.30;;;-0.24;62.72;94498.88;5034131;28;20252;-84
2022/04/03 04:12:04;;;;;;;0.70;0.70;;;1.20;74.20;;;-0.26;62.58;94505.91;5018162;28;20243;-84
2022/04/03 04:14:31;;;;;;;0.80;0.80;;;1.20;74.30;;;-0.29;62.57;94505.38;5051230;28;20218;-85
2022/04/03 04:16:59;;;;;;;0.80;0.80;;;1.20;74.30;;;-0.34;62.73;94513.53;5069897;28;20231;-84
2022/04/03 04:19:26;;;;;;;0.80;0.80;;;1.20;74.30;;;-0.45;63.00;94511.88;5054032;28;20223;-84
2022/04/03 04:21:54;;;;;;;0.80;0.80;;;1.10;74.20;;;-0.36;62.65;94531.69;5053998;28;20195;-85
2022/04/03 04:24:21;;;;;;;0.80;0.80;;;1.10;74.60;;;-0.37;62.72;94532.63;5043884;28;20694;-84
2022/04/03 04:26:48;;;;;;;0.70;0.70;;;1.10;74.40;;;-0.41;62.60;94528.69;5050736;28;20201;-85
2022/04/03 04:29:15;;;;;;;0.70;0.70;;;1.10;74.40;;;-0.39;62.80;94531.97;5067164;28;20375;-84
2022/04/03 04:31:42;;;;;;;0.70;0.70;;;1.00;74.30;;;-0.45;62.85;94531.66;5053113;28;20188;-84
2022/04/03 04:34:10;;;;;;;0.80;0.80;;;1.00;74.50;;;-0.38;63.28;94541.31;5054221;28;20227;-85
2022/04/03 04:36:37;;;;;;;0.80;0.80;;;1.00;74.60;;;-0.37;63.05;94547.28;5055826;28;20195;-84
2022/04/03 04:39:04;;;;;;;0.70;0.70;;;1.00;74.60;;;-0.31;63.12;94557.06;5057262;28;20273;-84
2022/04/03 04:41:31;;;;;;;0.80;0.80;;;1.00;74.70;;;-0.26;63.10;94559.22;5057111;28;20198;-84
2022/04/03 04:43:59;;;;;;;0.70;0.70;;;1.00;74.90;;;-0.22;63.21;94563.16;5060220;28;20578;-84
2022/04/03 04:46:26;;;;;;;0.70;0.70;;;1.00;74.90;;;-0.15;63.11;94564.25;5057231;28;20283;-85
2022/04/03 04:48:53;;;;;;;0.70;0.70;;;1.10;75.00;;;-0.12;63.20;94570.91;5056937;28;20376;-84
2022/04/03 04:51:21;;;;;;;0.70;0.70;;;1.10;75.00;;;-0.14;63.07;94573.63;5065269;28;20219;-84
2022/04/03 04:53:49;;;;;;;0.80;0.80;;;1.10;75.00;;;-0.02;63.08;94576.91;5053650;28;20216;-84
2022/04/03 04:56:16;;;;;;;0.80;0.80;;;1.20;75.10;;;0.03;63.20;94582.44;5053741;28;20664;-84
2022/04/03 04:58:43;;;;;;;0.70;0.70;;;1.20;75.20;;;0.03;62.96;94574.72;5036874;28;20582;-84
2022/04/03 05:01:10;;;;;;;0.80;0.80;;;1.20;75.10;;;0.14;63.29;94590.03;5052708;28;20200;-85
2022/04/03 05:03:37;;;;;;;0.82;0.82;;;1.30;75.20;;;0.19;62.94;94589.66;5052277;28;20262;-83
2022/04/03 05:06:05;;;;;;;0.80;0.80;;;1.30;75.10;;;0.23;62.98;94593.59;5052958;28;20192;-85
2022/04/03 05:08:32;;;;;;;0.70;0.70;;;1.40;75.20;;;0.22;63.50;94591.97;5053338;28;20203;-84
2022/04/03 05:10:59;;;;;;;0.70;0.70;;;1.40;75.30;;;0.34;62.93;94594.41;5045635;28;20216;-85
2022/04/03 05:13:28;;;;;;;0.70;0.70;;;1.40;75.20;;;0.37;62.85;94599.28;5069972;28;20250;-84
2022/04/03 05:15:55;;;;;;;0.63;0.63;;;1.40;75.20;;;0.37;63.04;94587.19;5053176;28;20298;-84
2022/04/03 05:18:22;;;;;;;0.70;0.70;;;1.50;75.30;;;0.50;62.92;94601.56;5053154;28;20200;-84
2022/04/03 05:20:50;;;;;;;0.77;0.77;;;1.60;75.30;;;0.57;62.95;94600.06;5049194;28;20235;-84
2022/04/03 05:23:17;;;;;;;0.60;0.60;;;1.60;75.30;;;0.54;62.84;94590.84;5053762;28;20207;-85
2022/04/03 05:25:44;;;;;;;0.70;0.70;;;1.60;75.30;;;0.67;63.04;94610.38;5073029;28;20195;-84
2022/04/03 05:28:12;;;;;;;0.70;0.70;;;1.70;75.30;;;0.55;62.75;94584.75;5056618;28;20641;-84
2022/04/03 05:30:39;;;;;;;0.70;0.70;;;1.70;75.30;;;0.71;62.80;94606.56;5061395;28;20215;-84
2022/04/03 05:33:06;;;;;;;0.80;0.80;;;1.80;75.40;;;0.77;63.10;94619.75;5045598;28;20238;-82
2022/04/03 05:35:33;;;;;;;0.70;0.70;;;1.80;75.50;;;0.82;62.91;94627.06;5052490;28;20210;-83
2022/04/03 05:38:00;;;;;;;0.70;0.70;;;1.80;75.30;;;0.86;62.90;94623.25;5046725;28;20202;-84
2022/04/03 05:40:27;;;;;;;0.70;0.70;;;1.90;75.30;;;0.84;62.96;94611.44;5054875;28;20226;-83
2022/04/03 05:42:54;;;;;;;0.70;0.70;;;1.90;75.30;;;0.95;62.73;94629.34;5068896;28;20249;-84
2022/04/03 05:45:22;;;;;;;0.70;0.70;;;2.00;75.30;;;0.86;62.98;94614.72;5052557;28;20208;-84
2022/04/03 05:47:49;;;;;;;0.70;0.70;;;2.00;75.20;;;1.02;63.05;94642.53;5050938;28;20207;-84
2022/04/03 05:50:16;;;;;;;0.70;0.70;;;2.00;75.20;;;1.07;62.55;94641.13;5068799;28;20306;-84
2022/04/03 05:52:47;;;;;;;0.60;0.60;;;2.10;75.30;;;1.04;62.68;94636.25;5052502;28;20261;-84
2022/04/03 05:55:17;;;;;;;0.70;0.70;;;2.10;75.30;;;1.18;62.62;94655.66;5051867;28;20311;-84
2022/04/03 05:57:46;;;;;;;0.80;0.80;;;2.20;75.40;;;1.22;62.84;94651.84;5052109;28;20203;-84
2022/04/03 06:00:15;;;;;;;0.70;0.70;;;2.20;75.30;;;1.27;62.70;94652.25;5052067;28;20307;-84
2022/04/03 06:02:47;;;;;;;0.70;0.70;;;2.20;75.30;;;1.30;62.71;94645.16;5071510;28;20203;-84
2022/04/03 06:05:16;;;;;;;0.80;0.80;;;2.30;75.30;;;1.31;62.74;94651.94;5039237;28;20223;-84
2022/04/03 06:07:44;;;;;;;0.77;0.77;;;2.30;75.30;;;1.37;62.74;94644.47;5072149;28;20220;-85
2022/04/03 06:10:11;;;;;;;0.80;0.80;;;2.40;75.40;;;1.40;62.70;94649.34;5025311;28;20250;-84
2022/04/03 06:12:57;;;;;;;0.60;0.60;;;2.50;75.40;;;1.46;62.67;94655.72;5067924;28;20283;-84
2022/04/03 06:15:28;;;;;;;0.70;0.70;;;2.50;75.10;;;1.53;62.59;94656.78;5051968;28;20247;-85
2022/04/03 06:17:55;;;;;;;0.80;0.80;;;2.50;75.20;;;1.60;62.87;94654.44;5051381;28;20235;-84
2022/04/03 06:20:23;;;;;;;0.70;0.70;;;2.50;75.30;;;1.53;62.46;94641.25;5032929;28;20682;-84
2022/04/03 06:22:50;;;;;;;0.70;0.70;;;2.60;75.40;;;1.69;62.64;94655.34;5055002;28;20208;-83
2022/04/03 06:25:20;;;;;;;0.80;0.80;;;2.60;75.30;;;1.77;62.62;94668.38;5035721;28;20298;-83
2022/04/03 06:27:48;;;;;;;0.70;0.70;;;2.70;75.30;;;1.82;62.83;94668.75;5050888;28;20208;-82
2022/04/03 06:30:16;;;;;;;0.80;0.80;;;2.70;75.30;;;1.86;61.83;94677.03;5019242;28;20219;-83
2022/04/03 06:32:43;;;;;;;0.70;0.70;;;2.70;75.10;;;1.85;62.13;94672.81;5054552;28;20249;-83
2022/04/03 06:35:10;;;;;;;0.80;0.80;;;2.80;75.00;;;1.76;62.16;94661.56;5016812;28;20247;-84
2022/04/03 06:37:38;;;;;;;0.70;0.70;;;2.80;75.10;;;1.90;62.29;94683.53;5015212;28;20204;-85
2022/04/03 06:40:07;;;;;;;0.70;0.70;;;2.80;75.00;;;1.95;61.88;94685.72;5047749;28;20212;-84
2022/04/03 06:42:35;;;;;;;0.70;0.70;;;2.90;75.00;;;1.83;62.21;94667.81;5026184;28;20227;-83
2022/04/03 06:45:04;;;;;;;0.70;0.70;;;2.90;75.00;;;2.04;62.35;94690.03;5046570;28;20217;-84
2022/04/03 06:47:32;;;;;;;0.60;0.60;;;2.90;75.10;;;2.10;62.56;94686.84;5047188;28;20722;-82
2022/04/03 06:50:00;;;;;;;0.65;0.65;;;2.90;75.40;;;2.26;62.33;94682.78;5055364;28;20208;-84
2022/04/03 06:52:27;;;;;;;0.70;0.70;;;3.00;75.50;;;2.42;62.46;94693.31;5047570;28;20197;-83
2022/04/03 06:54:55;;;;;;;0.70;0.70;;;3.10;75.70;;;2.56;62.34;94690.22;5064716;28;20263;-84
2022/04/03 06:57:22;;;;;;;0.70;0.70;;;3.20;75.70;;;2.64;61.90;94699.84;5034222;28;20200;-84
2022/04/03 06:59:49;;;;;;;0.70;0.70;;;3.30;75.50;;;2.61;61.93;94676.81;5064432;28;20678;-84
2022/04/03 07:02:16;;;;;;;0.60;0.60;;;3.40;75.50;;;2.79;61.42;94697.53;5068446;28;20200;-84
2022/04/03 07:04:43;;;;;;;0.70;0.70;;;3.40;75.20;;;2.86;61.63;94695.97;5051454;28;20303;-84
2022/04/03 07:07:24;;;;;;;0.60;0.60;;;3.50;75.30;;;3.02;61.54;94707.44;5051700;28;20282;-84
2022/04/03 07:09:53;;;;;;;0.80;0.80;;;3.60;75.20;;;3.01;61.14;94698.03;5030832;28;20248;-83
2022/04/03 07:12:20;;;;;;;0.70;0.70;;;3.60;74.20;;;3.03;60.81;94704.69;5032443;28;20294;-84
2022/04/03 07:14:48;;;;;;;0.80;0.80;;;3.70;74.50;;;3.05;60.59;94709.72;5039859;28;20690;-84
2022/04/03 07:17:16;;;;;;;0.80;0.80;;;3.70;74.30;;;3.06;60.94;94710.53;5067760;28;20234;-83
2022/04/03 07:19:44;;;;;;;0.70;0.70;;;3.70;74.50;;;3.05;61.36;94707.13;5034730;28;20262;-84
2022/04/03 07:22:11;;;;;;;0.80;0.80;;;3.80;74.80;;;3.20;60.92;94725.56;5018503;28;20531;-84
2022/04/03 07:24:38;;;;;;;0.80;0.80;;;3.80;74.80;;;3.27;60.97;94717.97;5034286;28;20278;-84
2022/04/03 07:27:07;;;;;;;0.70;0.70;;;3.90;74.80;;;3.32;61.01;94724.34;5018357;28;20294;-84
2022/04/03 07:29:35;;;;;;;0.80;0.80;;;3.90;74.70;;;3.41;60.69;94727.81;5038173;28;20231;-84
2022/04/03 07:32:03;;;;;;;0.70;0.70;;;4.00;74.90;;;3.49;61.24;94717.50;5038429;28;20195;-84
2022/04/03 07:34:30;;;;;;;0.70;0.70;;;4.10;75.00;;;3.61;60.85;94725.81;5037373;28;20289;-84
2022/04/03 07:36:57;;;;;;;0.70;0.70;;;4.10;75.00;;;3.66;60.83;94726.19;5038219;28;20318;-84
2022/04/03 07:39:26;;;;;;;0.70;0.70;;;4.30;75.00;;;3.75;60.79;94734.81;5054654;28;20219;-83
2022/04/03 07:41:53;;;;;;;0.70;0.70;;;4.30;74.90;;;3.73;60.31;94734.16;5054387;28;20286;-82
2022/04/03 07:44:20;;;;;;;0.70;0.70;;;4.40;74.20;;;3.66;60.47;94748.69;5037758;28;20224;-82
2022/04/03 07:46:48;;;;;;;0.70;0.70;;;4.40;74.30;;;3.55;59.87;94733.41;5054369;28;20192;-83
2022/04/03 07:49:15;;;;;;;0.77;0.77;;;4.40;74.00;;;3.50;60.33;94739.03;5033991;28;20255;-83
2022/04/03 07:51:42;;;;;;;0.70;0.70;;;4.40;73.80;;;3.44;60.33;94750.84;5047912;28;20631;-82
2022/04/03 07:54:09;;;;;;;0.80;0.80;;;4.40;73.60;;;3.39;60.21;94745.28;5053012;28;20235;-83
2022/04/03 07:56:37;;;;;;;0.70;0.70;;;4.30;73.60;;;3.35;60.01;94749.94;5037208;28;20242;-83
2022/04/03 07:59:06;;;;;;;0.70;0.70;;;4.30;73.00;;;3.36;60.34;94751.59;5047735;28;20339;-84
2022/04/03 08:01:34;;;;;;;0.70;0.70;;;4.20;73.40;;;3.39;60.34;94755.66;5039853;28;20206;-85
2022/04/03 08:04:02;;;;;;;0.63;0.63;;;4.20;73.70;;;3.40;60.36;94759.88;5052608;28;20227;-83
2022/04/03 08:06:29;;;;;;;0.75;0.75;;;4.20;73.40;;;3.44;59.92;94768.16;5040451;28;20686;-83
2022/04/03 08:08:56;;;;;;;0.70;0.70;;;4.20;73.80;;;3.41;59.65;94760.69;5052682;28;20223;-83
2022/04/03 08:11:23;;;;;;;0.80;0.80;;;4.20;73.20;;;3.34;59.65;94753.53;5073191;28;20223;-84
2022/04/03 08:13:50;;;;;;;0.80;0.80;;;4.20;72.50;;;3.30;58.99;94752.19;5050024;28;20216;-83
2022/04/03 08:16:17;;;;;;;0.70;0.70;;;4.10;72.50;;;3.26;59.61;94752.63;5034423;28;20200;-83
2022/04/03 08:18:45;;;;;;;0.73;0.73;;;4.10;73.00;;;3.26;59.99;94752.63;5055315;28;20266;-84
2022/04/03 08:21:12;;;;;;;0.70;0.70;;;4.10;73.20;;;3.36;59.61;94763.75;5057658;28;20302;-84
2022/04/03 08:23:40;;;;;;;0.70;0.70;;;4.10;73.40;;;3.44;59.78;94762.97;5074092;28;20219;-85
2022/04/03 08:26:09;;;;;;;0.70;0.70;;;4.20;73.50;;;3.56;59.37;94768.75;5057942;28;20203;-84
2022/04/03 08:28:36;;;;;;;0.80;0.80;;;4.20;73.80;;;3.63;59.71;94772.34;5039793;28;20197;-84
2022/04/03 08:31:03;;;;;;;0.60;0.60;;;4.20;73.70;;;3.75;59.72;94770.28;5050271;28;20764;-84
2022/04/03 08:33:35;;;;;;;0.60;0.60;;;4.30;73.70;;;3.73;59.37;94759.28;5050799;28;20667;-84
2022/04/03 08:36:03;;;;;;;0.70;0.70;;;4.30;73.70;;;3.79;59.47;94764.66;5066223;28;20209;-85
2022/04/03 08:38:30;;;;;;;0.70;0.70;;;4.40;73.80;;;3.81;59.45;94760.13;5059889;28;20295;-85
2022/04/03 08:41:01;;;;;;;0.70;0.70;;;4.40;73.80;;;3.92;59.08;94782.41;5066283;28;20220;-86
2022/04/03 08:43:32;;;;;;;0.70;0.70;;;4.50;73.20;;;3.87;59.06;94781.25;5083639;28;20196;-85
2022/04/03 08:46:01;;;;;;;0.80;0.80;;;4.50;72.80;;;3.69;59.06;94762.16;5053661;28;20700;-84
2022/04/03 08:48:32;;;;;;;0.70;0.70;;;4.50;72.70;;;3.71;59.33;94780.19;5069605;28;20203;-83
2022/04/03 08:51:04;;;;;;;0.70;0.70;;;4.50;72.80;;;3.71;59.27;94767.22;5032804;28;20216;-84
2022/04/03 08:53:32;;;;;;;0.60;0.60;;;4.50;73.00;;;3.86;59.19;94788.22;5053302;28;20200;-84
2022/04/03 08:55:59;;;;;;;0.60;0.60;;;4.50;72.90;;;3.92;59.39;94787.59;5057317;28;20199;-84
2022/04/03 08:58:26;;;;;;;0.70;0.70;;;4.50;73.00;;;3.96;58.90;94794.09;5056983;28;20658;-85
2022/04/03 09:00:56;;;;;;;0.70;0.70;;;4.50;73.00;;;3.95;59.02;94773.50;5056935;28;20294;-83
2022/04/03 09:03:23;;;;;;;0.70;0.70;;;4.70;73.60;;;4.18;59.17;94791.94;5073245;28;20256;-85
2022/04/03 09:05:51;;;;;;;0.70;0.70;;;4.60;73.30;;;4.28;59.10;94791.84;5038254;28;20532;-83
2022/04/03 09:08:36;;;;;;;0.80;0.80;;;4.70;73.60;;;4.36;58.11;94811.81;5049827;28;20197;-84
2022/04/03 09:11:05;;;;;;;0.70;0.70;;;4.80;72.20;;;4.31;57.60;94807.91;5050044;28;20225;-85
2022/04/03 09:13:33;;;;;;;0.80;0.80;;;4.80;72.30;;;4.32;58.41;94806.13;5063016;28;20199;-85
2022/04/03 09:16:00;;;;;;;0.70;0.70;;;4.80;72.80;;;4.35;58.08;94808.41;5057645;28;20206;-85
2022/04/03 09:18:48;;;;;;;0.70;0.70;;;4.80;72.20;;;4.33;58.16;94805.16;5040079;28;20287;-85
2022/04/03 09:21:17;;;;;;;0.70;0.70;;;4.80;72.20;;;4.41;58.07;94802.59;5048779;28;20646;-84
2022/04/03 09:24:03;;;;;;;0.80;0.80;;;4.90;72.60;;;4.35;57.34;94799.81;5082343;28;20295;-86
2022/04/03 09:26:31;;;;;;;0.60;0.60;;;4.90;71.30;;;4.42;57.56;94826.78;5069646;28;20218;-85
2022/04/03 09:29:17;;;;;;;0.80;0.80;;;4.90;71.90;;;4.29;56.16;94822.03;5066111;28;20703;-85
2022/04/03 09:31:46;;;;;;;0.80;0.80;;;4.90;70.30;;;4.23;56.94;94830.44;5053640;28;20208;-84
2022/04/03 09:34:20;;;;;;;0.70;0.70;;;4.80;71.10;;;4.21;56.70;94830.59;5053166;28;20755;-85
2022/04/03 09:37:05;;;;;;;0.80;0.80;;;4.80;71.10;;;4.25;57.18;94829.31;5053111;28;20203;-85
2022/04/03 09:39:33;;;;;;;0.60;0.60;;;4.80;70.90;;;4.33;57.37;94829.34;5072387;28;20211;-85
2022/04/03 09:42:06;;;;;;;0.80;0.80;;;4.80;72.20;;;4.48;57.65;94826.19;5072464;28;20245;-85
2022/04/03 09:44:40;;;;;;;0.60;0.60;;;4.80;72.20;;;4.63;57.91;94828.97;5048932;28;20603;-84
2022/04/03 09:47:24;;;;;;;0.70;0.70;;;5.00;72.40;;;4.74;57.90;94840.88;5068710;28;20192;-84
2022/04/03 09:49:55;;;;;;;0.70;0.70;;;5.10;72.50;;;4.75;57.35;94838.13;5069563;28;20220;-84
2022/04/03 09:52:33;;;;;;;0.70;0.70;;;5.10;72.50;;;4.71;57.43;94842.00;5051447;28;20211;-84
2022/04/03 09:55:05;;;;;;;0.60;0.60;;;5.20;71.70;;;4.63;57.61;94829.78;5052290;28;20219;-83
2022/04/03 09:57:33;;;;;;;0.80;0.80;;;5.20;72.50;;;4.74;58.22;94848.69;5075867;28;20374;-84
2022/04/03 10:00:00;;;;;;;0.80;0.80;;;5.30;73.50;;;4.80;58.27;94842.84;5049381;28;20307;-84
2022/04/03 10:02:37;;;;;;;0.80;0.80;;;5.30;72.60;;;4.92;58.31;94841.56;5047606;28;20204;-83
2022/04/03 10:05:07;;;;;;;0.70;0.70;;;5.30;72.60;;;4.99;58.96;94822.75;5049476;28;20231;-83
2022/04/03 10:07:37;;;;;;;0.70;0.70;;;5.40;73.10;;;5.33;58.41;94853.03;5065682;28;20661;-84
2022/04/03 10:10:05;;;;;;;0.60;0.60;;;5.50;73.80;;;5.36;57.84;94837.09;5065465;28;20225;-84
2022/04/03 10:12:34;;;;;;;0.80;0.80;;;5.60;72.80;;;5.46;57.74;94850.78;5065479;28;20197;-84
2022/04/03 10:15:05;;;;;;;0.63;0.63;;;5.70;72.80;;;5.53;57.90;94840.50;5056967;28;20219;-84
2022/04/03 10:17:32;;;;;;;0.80;0.80;;;5.80;72.90;;;5.60;58.02;94831.09;5060774;28;20299;-83
2022/04/03 10:20:06;;;;;;;0.75;0.75;;;5.80;73.80;;;5.85;57.97;94841.50;5032108;28;20224;-83
2022/04/03 10:22:38;;;;;;;0.60;0.60;;;5.90;73.00;;;5.76;56.16;94835.47;5049805;28;20197;-83
2022/04/03 10:25:11;;;;;;;0.70;0.70;;;6.10;71.40;;;5.76;56.62;94843.28;5054734;28;20247;-84
2022/04/03 10:27:40;;;;;;;0.70;0.70;;;6.10;71.70;;;5.53;56.66;94823.13;5039040;28;20207;-82
2022/04/03 10:30:08;;;;;;;0.80;0.80;;;6.10;71.40;;;5.56;56.24;94843.59;5071027;28;20638;-83
2022/04/03 10:32:35;;;;;;;0.80;0.80;;;6.10;71.10;;;5.43;56.59;94849.31;5054346;28;20626;-84
2022/04/03 10:35:10;;;;;;;0.65;0.65;;;6.10;71.30;;;5.31;56.30;94855.81;5044417;28;20683;-83
2022/04/03 10:37:41;;;;;;;0.60;0.60;;;6.10;70.40;;;5.10;56.17;94846.66;5048088;28;20559;-84